sensor_id;sensor_type;location;lat;lon;timestamp;P1;durP1;ratioP1;P2;durP2;ratioP2
73428;SDS011;61643;49.564;17.412;2022-12-05T00:03:40;17.73;;;8.98;;
73428;SDS011;61643;49.564;17.412;2022-12-05T00:06:06;19.90;;;9.70;;
73428;SDS011;61643;49.564;17.412;2022-12-05T00:08:31;19.02;;;9.50;;
73428;SDS011;61643;49.564;17.412;2022-12-05T00:10:57;19.07;;;9.00;;
73428;SDS011;61643;49.564;17.412;2022-12-05T00:13:22;17.93;;;8.70;;
73428;SDS011;61643;49.564;17.412;2022-12-05T00:15:47;17.57;;;9.10;;
73428;SDS011;61643;49.564;17.412;2022-12-05T00:18:13;18.13;;;8.70;;
73428;SDS011;61643;49.564;17.412;2022-12-05T00:20:43;19.03;;;8.73;;
73428;SDS011;61643;49.564;17.412;2022-12-05T00:23:12;18.00;;;9.27;;
73428;SDS011;61643;49.564;17.412;2022-12-05T00:25:38;21.58;;;9.52;;
73428;SDS011;61643;49.564;17.412;2022-12-05T00:28:03;16.80;;;8.07;;
73428;SDS011;61643;49.564;17.412;2022-12-05T00:30:29;18.70;;;8.93;;
73428;SDS011;61643;49.564;17.412;2022-12-05T00:32:54;18.27;;;8.13;;
73428;SDS011;61643;49.564;17.412;2022-12-05T00:35:20;19.17;;;8.77;;
73428;SDS011;61643;49.564;17.412;2022-12-05T00:37:45;19.98;;;8.48;;
73428;SDS011;61643;49.564;17.412;2022-12-05T00:40:10;18.52;;;7.68;;
73428;SDS011;61643;49.564;17.412;2022-12-05T00:42:36;20.60;;;9.38;;
73428;SDS011;61643;49.564;17.412;2022-12-05T00:45:01;19.40;;;8.38;;
73428;SDS011;61643;49.564;17.412;2022-12-05T00:47:27;18.50;;;8.63;;
73428;SDS011;61643;49.564;17.412;2022-12-05T00:49:52;18.73;;;8.63;;
73428;SDS011;61643;49.564;17.412;2022-12-05T00:52:18;19.17;;;8.37;;
73428;SDS011;61643;49.564;17.412;2022-12-05T00:54:43;17.23;;;7.97;;
73428;SDS011;61643;49.564;17.412;2022-12-05T00:57:08;19.17;;;8.30;;
73428;SDS011;61643;49.564;17.412;2022-12-05T00:59:34;17.77;;;8.00;;
73428;SDS011;61643;49.564;17.412;2022-12-05T01:01:59;18.23;;;8.67;;
73428;SDS011;61643;49.564;17.412;2022-12-05T01:04:24;20.27;;;7.73;;
73428;SDS011;61643;49.564;17.412;2022-12-05T01:06:52;16.10;;;7.73;;
73428;SDS011;61643;49.564;17.412;2022-12-05T01:09:20;18.63;;;8.05;;
73428;SDS011;61643;49.564;17.412;2022-12-05T01:11:46;16.42;;;7.72;;
73428;SDS011;61643;49.564;17.412;2022-12-05T01:14:12;16.48;;;8.02;;
73428;SDS011;61643;49.564;17.412;2022-12-05T01:16:40;18.35;;;7.60;;
73428;SDS011;61643;49.564;17.412;2022-12-05T01:19:13;16.65;;;7.57;;
73428;SDS011;61643;49.564;17.412;2022-12-05T01:21:49;18.40;;;8.10;;
73428;SDS011;61643;49.564;17.412;2022-12-05T01:24:15;17.25;;;8.45;;
73428;SDS011;61643;49.564;17.412;2022-12-05T01:26:42;16.08;;;7.90;;
73428;SDS011;61643;49.564;17.412;2022-12-05T01:29:09;17.33;;;7.82;;
73428;SDS011;61643;49.564;17.412;2022-12-05T01:31:36;18.20;;;7.72;;
73428;SDS011;61643;49.564;17.412;2022-12-05T01:34:03;19.35;;;8.13;;
73428;SDS011;61643;49.564;17.412;2022-12-05T01:36:30;16.58;;;7.93;;
73428;SDS011;61643;49.564;17.412;2022-12-05T01:38:56;17.67;;;8.35;;
73428;SDS011;61643;49.564;17.412;2022-12-05T01:41:23;18.03;;;8.20;;
73428;SDS011;61643;49.564;17.412;2022-12-05T01:46:24;15.00;;;7.53;;
73428;SDS011;61643;49.564;17.412;2022-12-05T01:48:51;19.83;;;8.60;;
73428;SDS011;61643;49.564;17.412;2022-12-05T01:51:21;16.67;;;7.85;;
73428;SDS011;61643;49.564;17.412;2022-12-05T01:53:47;17.55;;;8.38;;
73428;SDS011;61643;49.564;17.412;2022-12-05T01:56:13;18.20;;;7.80;;
73428;SDS011;61643;49.564;17.412;2022-12-05T01:58:38;17.80;;;6.70;;
73428;SDS011;61643;49.564;17.412;2022-12-05T02:01:06;13.95;;;7.18;;
73428;SDS011;61643;49.564;17.412;2022-12-05T02:03:31;17.30;;;7.57;;
73428;SDS011;61643;49.564;17.412;2022-12-05T02:05:57;16.52;;;7.47;;
73428;SDS011;61643;49.564;17.412;2022-12-05T02:08:25;15.52;;;7.28;;
73428;SDS011;61643;49.564;17.412;2022-12-05T02:10:52;16.08;;;7.57;;
73428;SDS011;61643;49.564;17.412;2022-12-05T02:18:31;15.75;;;6.72;;
73428;SDS011;61643;49.564;17.412;2022-12-05T02:21:14;15.18;;;7.13;;
73428;SDS011;61643;49.564;17.412;2022-12-05T02:30:03;14.63;;;5.97;;
73428;SDS011;61643;49.564;17.412;2022-12-05T02:37:33;13.93;;;6.85;;
73428;SDS011;61643;49.564;17.412;2022-12-05T02:40:13;13.70;;;6.80;;
73428;SDS011;61643;49.564;17.412;2022-12-05T02:45:29;16.80;;;7.22;;
73428;SDS011;61643;49.564;17.412;2022-12-05T02:47:58;15.43;;;7.20;;
73428;SDS011;61643;49.564;17.412;2022-12-05T02:50:26;13.30;;;6.65;;
73428;SDS011;61643;49.564;17.412;2022-12-05T02:52:57;16.00;;;7.65;;
73428;SDS011;61643;49.564;17.412;2022-12-05T02:55:27;14.73;;;7.38;;
73428;SDS011;61643;49.564;17.412;2022-12-05T02:57:56;15.55;;;7.65;;
73428;SDS011;61643;49.564;17.412;2022-12-05T03:00:24;14.88;;;7.22;;
73428;SDS011;61643;49.564;17.412;2022-12-05T03:02:51;15.53;;;7.33;;
73428;SDS011;61643;49.564;17.412;2022-12-05T03:05:30;16.40;;;7.03;;
73428;SDS011;61643;49.564;17.412;2022-12-05T03:08:16;17.20;;;7.47;;
73428;SDS011;61643;49.564;17.412;2022-12-05T03:10:46;14.07;;;6.50;;
73428;SDS011;61643;49.564;17.412;2022-12-05T03:13:15;17.30;;;7.55;;
73428;SDS011;61643;49.564;17.412;2022-12-05T03:15:49;17.92;;;7.38;;
73428;SDS011;61643;49.564;17.412;2022-12-05T03:18:27;13.23;;;6.88;;
73428;SDS011;61643;49.564;17.412;2022-12-05T03:21:02;16.13;;;7.63;;
73428;SDS011;61643;49.564;17.412;2022-12-05T03:23:33;14.25;;;6.90;;
73428;SDS011;61643;49.564;17.412;2022-12-05T03:31:43;16.38;;;7.13;;
73428;SDS011;61643;49.564;17.412;2022-12-05T03:34:15;16.52;;;7.25;;
73428;SDS011;61643;49.564;17.412;2022-12-05T03:36:48;18.88;;;8.23;;
73428;SDS011;61643;49.564;17.412;2022-12-05T03:39:19;14.32;;;7.57;;
73428;SDS011;61643;49.564;17.412;2022-12-05T03:41:52;14.90;;;7.60;;
73428;SDS011;61643;49.564;17.412;2022-12-05T03:47:09;18.73;;;7.93;;
73428;SDS011;61643;49.564;17.412;2022-12-05T03:49:42;19.08;;;8.50;;
73428;SDS011;61643;49.564;17.412;2022-12-05T03:52:23;17.70;;;7.93;;
73428;SDS011;61643;49.564;17.412;2022-12-05T03:54:57;21.90;;;8.90;;
73428;SDS011;61643;49.564;17.412;2022-12-05T03:57:30;20.15;;;8.40;;
73428;SDS011;61643;49.564;17.412;2022-12-05T04:00:04;15.30;;;8.48;;
73428;SDS011;61643;49.564;17.412;2022-12-05T04:02:43;14.65;;;7.68;;
73428;SDS011;61643;49.564;17.412;2022-12-05T04:05:17;22.10;;;9.45;;
73428;SDS011;61643;49.564;17.412;2022-12-05T04:07:43;20.88;;;8.70;;
73428;SDS011;61643;49.564;17.412;2022-12-05T04:10:14;17.35;;;8.55;;
73428;SDS011;61643;49.564;17.412;2022-12-05T04:12:42;20.70;;;9.63;;
73428;SDS011;61643;49.564;17.412;2022-12-05T04:15:15;19.45;;;8.98;;
73428;SDS011;61643;49.564;17.412;2022-12-05T04:17:57;17.17;;;8.32;;
73428;SDS011;61643;49.564;17.412;2022-12-05T04:20:28;20.52;;;8.32;;
73428;SDS011;61643;49.564;17.412;2022-12-05T04:23:13;19.90;;;8.88;;
73428;SDS011;61643;49.564;17.412;2022-12-05T04:38:57;21.13;;;9.02;;
73428;SDS011;61643;49.564;17.412;2022-12-05T04:42:00;18.73;;;8.13;;
73428;SDS011;61643;49.564;17.412;2022-12-05T04:44:23;20.45;;;9.73;;
73428;SDS011;61643;49.564;17.412;2022-12-05T04:46:53;20.95;;;9.57;;
73428;SDS011;61643;49.564;17.412;2022-12-05T04:49:22;20.52;;;9.75;;
73428;SDS011;61643;49.564;17.412;2022-12-05T04:51:52;20.17;;;9.55;;
73428;SDS011;61643;49.564;17.412;2022-12-05T04:54:23;22.23;;;9.75;;
73428;SDS011;61643;49.564;17.412;2022-12-05T04:56:58;19.25;;;9.15;;
73428;SDS011;61643;49.564;17.412;2022-12-05T04:59:29;18.63;;;9.02;;
73428;SDS011;61643;49.564;17.412;2022-12-05T05:01:56;23.37;;;9.53;;
73428;SDS011;61643;49.564;17.412;2022-12-05T05:04:28;20.63;;;9.32;;
73428;SDS011;61643;49.564;17.412;2022-12-05T05:07:00;20.40;;;9.25;;
73428;SDS011;61643;49.564;17.412;2022-12-05T05:09:29;19.65;;;9.63;;
73428;SDS011;61643;49.564;17.412;2022-12-05T05:11:55;20.20;;;9.80;;
73428;SDS011;61643;49.564;17.412;2022-12-05T05:14:20;21.08;;;9.20;;
73428;SDS011;61643;49.564;17.412;2022-12-05T05:16:45;22.57;;;9.53;;
73428;SDS011;61643;49.564;17.412;2022-12-05T05:19:12;21.83;;;9.00;;
73428;SDS011;61643;49.564;17.412;2022-12-05T05:21:38;20.92;;;9.73;;
73428;SDS011;61643;49.564;17.412;2022-12-05T05:24:06;23.42;;;10.32;;
73428;SDS011;61643;49.564;17.412;2022-12-05T05:26:35;22.02;;;10.65;;
73428;SDS011;61643;49.564;17.412;2022-12-05T05:29:04;23.33;;;10.57;;
73428;SDS011;61643;49.564;17.412;2022-12-05T05:31:31;20.27;;;9.38;;
73428;SDS011;61643;49.564;17.412;2022-12-05T05:33:57;20.75;;;9.32;;
73428;SDS011;61643;49.564;17.412;2022-12-05T05:36:23;19.80;;;9.40;;
73428;SDS011;61643;49.564;17.412;2022-12-05T05:38:51;22.40;;;10.15;;
73428;SDS011;61643;49.564;17.412;2022-12-05T05:41:19;23.38;;;10.18;;
73428;SDS011;61643;49.564;17.412;2022-12-05T05:43:55;21.40;;;10.38;;
73428;SDS011;61643;49.564;17.412;2022-12-05T05:46:22;24.98;;;10.48;;
73428;SDS011;61643;49.564;17.412;2022-12-05T05:48:49;23.98;;;10.82;;
73428;SDS011;61643;49.564;17.412;2022-12-05T05:51:15;24.23;;;11.18;;
73428;SDS011;61643;49.564;17.412;2022-12-05T05:53:41;24.52;;;10.30;;
73428;SDS011;61643;49.564;17.412;2022-12-05T05:56:08;22.05;;;10.15;;
73428;SDS011;61643;49.564;17.412;2022-12-05T05:58:36;22.20;;;10.00;;
73428;SDS011;61643;49.564;17.412;2022-12-05T06:01:04;21.80;;;10.38;;
73428;SDS011;61643;49.564;17.412;2022-12-05T06:03:29;21.75;;;10.10;;
73428;SDS011;61643;49.564;17.412;2022-12-05T06:05:56;25.80;;;10.93;;
73428;SDS011;61643;49.564;17.412;2022-12-05T06:08:22;26.02;;;11.35;;
73428;SDS011;61643;49.564;17.412;2022-12-05T06:10:47;24.27;;;11.10;;
73428;SDS011;61643;49.564;17.412;2022-12-05T06:13:12;25.80;;;11.10;;
73428;SDS011;61643;49.564;17.412;2022-12-05T06:15:38;24.67;;;11.17;;
73428;SDS011;61643;49.564;17.412;2022-12-05T06:18:03;24.83;;;11.07;;
73428;SDS011;61643;49.564;17.412;2022-12-05T06:20:28;28.83;;;11.67;;
73428;SDS011;61643;49.564;17.412;2022-12-05T06:22:54;26.80;;;11.60;;
73428;SDS011;61643;49.564;17.412;2022-12-05T06:25:19;26.30;;;11.20;;
73428;SDS011;61643;49.564;17.412;2022-12-05T06:27:44;27.90;;;13.27;;
73428;SDS011;61643;49.564;17.412;2022-12-05T06:30:10;29.77;;;12.00;;
73428;SDS011;61643;49.564;17.412;2022-12-05T06:32:35;24.88;;;11.15;;
73428;SDS011;61643;49.564;17.412;2022-12-05T06:35:01;24.95;;;12.07;;
73428;SDS011;61643;49.564;17.412;2022-12-05T06:37:34;26.02;;;10.95;;
73428;SDS011;61643;49.564;17.412;2022-12-05T06:40:00;28.00;;;11.65;;
73428;SDS011;61643;49.564;17.412;2022-12-05T06:42:25;21.87;;;10.50;;
73428;SDS011;61643;49.564;17.412;2022-12-05T06:44:51;23.83;;;11.60;;
73428;SDS011;61643;49.564;17.412;2022-12-05T06:47:16;25.47;;;11.33;;
73428;SDS011;61643;49.564;17.412;2022-12-05T06:49:41;20.43;;;10.53;;
73428;SDS011;61643;49.564;17.412;2022-12-05T06:52:07;22.43;;;10.43;;
73428;SDS011;61643;49.564;17.412;2022-12-05T06:54:32;20.25;;;10.35;;
73428;SDS011;61643;49.564;17.412;2022-12-05T06:56:58;23.52;;;10.63;;
73428;SDS011;61643;49.564;17.412;2022-12-05T06:59:23;24.23;;;10.37;;
73428;SDS011;61643;49.564;17.412;2022-12-05T07:01:48;22.23;;;11.07;;
73428;SDS011;61643;49.564;17.412;2022-12-05T07:04:19;20.23;;;9.43;;
73428;SDS011;61643;49.564;17.412;2022-12-05T07:06:49;24.15;;;10.93;;
73428;SDS011;61643;49.564;17.412;2022-12-05T07:09:15;20.25;;;10.35;;
73428;SDS011;61643;49.564;17.412;2022-12-05T07:11:42;23.10;;;10.32;;
73428;SDS011;61643;49.564;17.412;2022-12-05T07:14:11;21.33;;;9.77;;
73428;SDS011;61643;49.564;17.412;2022-12-05T07:16:36;23.10;;;10.67;;
73428;SDS011;61643;49.564;17.412;2022-12-05T07:19:01;39.85;;;14.57;;
73428;SDS011;61643;49.564;17.412;2022-12-05T07:21:27;26.42;;;11.35;;
73428;SDS011;61643;49.564;17.412;2022-12-05T07:23:53;39.10;;;16.83;;
73428;SDS011;61643;49.564;17.412;2022-12-05T07:26:19;27.60;;;13.23;;
73428;SDS011;61643;49.564;17.412;2022-12-05T07:28:47;18.85;;;10.23;;
73428;SDS011;61643;49.564;17.412;2022-12-05T07:31:18;21.02;;;10.25;;
73428;SDS011;61643;49.564;17.412;2022-12-05T07:33:45;20.83;;;10.18;;
73428;SDS011;61643;49.564;17.412;2022-12-05T07:36:12;22.75;;;10.18;;
73428;SDS011;61643;49.564;17.412;2022-12-05T07:38:40;23.90;;;10.52;;
73428;SDS011;61643;49.564;17.412;2022-12-05T07:41:07;22.10;;;10.35;;
73428;SDS011;61643;49.564;17.412;2022-12-05T07:43:34;21.58;;;10.48;;
73428;SDS011;61643;49.564;17.412;2022-12-05T07:46:00;20.38;;;10.38;;
73428;SDS011;61643;49.564;17.412;2022-12-05T07:48:29;23.77;;;11.30;;
73428;SDS011;61643;49.564;17.412;2022-12-05T07:50:57;24.48;;;11.15;;
73428;SDS011;61643;49.564;17.412;2022-12-05T07:53:24;22.83;;;10.70;;
73428;SDS011;61643;49.564;17.412;2022-12-05T07:55:49;18.10;;;9.50;;
73428;SDS011;61643;49.564;17.412;2022-12-05T07:58:15;19.02;;;9.57;;
73428;SDS011;61643;49.564;17.412;2022-12-05T08:00:40;18.40;;;9.57;;
73428;SDS011;61643;49.564;17.412;2022-12-05T08:03:06;21.20;;;9.73;;
73428;SDS011;61643;49.564;17.412;2022-12-05T08:05:32;18.73;;;9.20;;
73428;SDS011;61643;49.564;17.412;2022-12-05T08:07:57;18.83;;;8.82;;
73428;SDS011;61643;49.564;17.412;2022-12-05T08:10:23;18.80;;;8.97;;
73428;SDS011;61643;49.564;17.412;2022-12-05T08:12:48;16.80;;;9.32;;
73428;SDS011;61643;49.564;17.412;2022-12-05T08:15:14;20.42;;;10.23;;
73428;SDS011;61643;49.564;17.412;2022-12-05T08:17:39;18.50;;;9.60;;
73428;SDS011;61643;49.564;17.412;2022-12-05T08:20:05;20.60;;;9.40;;
73428;SDS011;61643;49.564;17.412;2022-12-05T08:22:31;19.23;;;9.07;;
73428;SDS011;61643;49.564;17.412;2022-12-05T08:24:56;20.77;;;9.75;;
73428;SDS011;61643;49.564;17.412;2022-12-05T08:27:21;20.50;;;9.77;;
73428;SDS011;61643;49.564;17.412;2022-12-05T08:29:47;20.43;;;9.67;;
73428;SDS011;61643;49.564;17.412;2022-12-05T08:32:12;18.57;;;9.03;;
73428;SDS011;61643;49.564;17.412;2022-12-05T08:34:37;19.73;;;9.40;;
73428;SDS011;61643;49.564;17.412;2022-12-05T08:37:03;20.97;;;9.37;;
73428;SDS011;61643;49.564;17.412;2022-12-05T08:39:28;21.90;;;10.20;;
73428;SDS011;61643;49.564;17.412;2022-12-05T08:41:54;18.60;;;9.13;;
73428;SDS011;61643;49.564;17.412;2022-12-05T08:44:19;19.07;;;9.27;;
73428;SDS011;61643;49.564;17.412;2022-12-05T08:46:48;20.67;;;9.13;;
73428;SDS011;61643;49.564;17.412;2022-12-05T08:49:14;19.63;;;9.52;;
73428;SDS011;61643;49.564;17.412;2022-12-05T08:51:40;22.13;;;10.00;;
73428;SDS011;61643;49.564;17.412;2022-12-05T08:54:06;22.52;;;10.52;;
73428;SDS011;61643;49.564;17.412;2022-12-05T08:56:32;22.63;;;10.57;;
73428;SDS011;61643;49.564;17.412;2022-12-05T08:58:58;22.23;;;10.48;;
73428;SDS011;61643;49.564;17.412;2022-12-05T09:01:23;22.40;;;10.88;;
73428;SDS011;61643;49.564;17.412;2022-12-05T09:03:54;20.98;;;10.73;;
73428;SDS011;61643;49.564;17.412;2022-12-05T09:06:21;22.67;;;11.23;;
73428;SDS011;61643;49.564;17.412;2022-12-05T09:08:48;23.10;;;10.85;;
73428;SDS011;61643;49.564;17.412;2022-12-05T09:11:19;21.40;;;10.60;;
73428;SDS011;61643;49.564;17.412;2022-12-05T09:13:48;23.00;;;11.00;;
73428;SDS011;61643;49.564;17.412;2022-12-05T09:16:16;22.55;;;10.82;;
73428;SDS011;61643;49.564;17.412;2022-12-05T09:18:44;22.50;;;10.43;;
73428;SDS011;61643;49.564;17.412;2022-12-05T09:21:11;24.15;;;10.88;;
73428;SDS011;61643;49.564;17.412;2022-12-05T09:23:38;21.45;;;10.00;;
73428;SDS011;61643;49.564;17.412;2022-12-05T09:26:04;25.40;;;11.20;;
73428;SDS011;61643;49.564;17.412;2022-12-05T09:28:31;22.80;;;10.55;;
73428;SDS011;61643;49.564;17.412;2022-12-05T09:30:58;22.60;;;11.20;;
73428;SDS011;61643;49.564;17.412;2022-12-05T09:33:29;26.95;;;11.20;;
73428;SDS011;61643;49.564;17.412;2022-12-05T09:35:56;21.55;;;11.00;;
73428;SDS011;61643;49.564;17.412;2022-12-05T09:38:21;22.55;;;11.05;;
73428;SDS011;61643;49.564;17.412;2022-12-05T09:41:13;24.08;;;11.43;;
73428;SDS011;61643;49.564;17.412;2022-12-05T09:44:22;20.33;;;9.75;;
73428;SDS011;61643;49.564;17.412;2022-12-05T09:47:16;19.05;;;9.98;;
73428;SDS011;61643;49.564;17.412;2022-12-05T09:49:54;21.30;;;10.18;;
73428;SDS011;61643;49.564;17.412;2022-12-05T09:52:27;19.67;;;9.63;;
73428;SDS011;61643;49.564;17.412;2022-12-05T09:54:56;20.02;;;10.20;;
73428;SDS011;61643;49.564;17.412;2022-12-05T09:57:29;22.25;;;11.15;;
73428;SDS011;61643;49.564;17.412;2022-12-05T09:59:59;22.75;;;9.85;;
73428;SDS011;61643;49.564;17.412;2022-12-05T10:02:43;20.20;;;10.25;;
73428;SDS011;61643;49.564;17.412;2022-12-05T10:05:28;19.33;;;8.93;;
73428;SDS011;61643;49.564;17.412;2022-12-05T10:15:39;20.80;;;9.43;;
73428;SDS011;61643;49.564;17.412;2022-12-05T10:21:41;23.55;;;11.35;;
73428;SDS011;61643;49.564;17.412;2022-12-05T10:26:27;22.13;;;9.82;;
73428;SDS011;61643;49.564;17.412;2022-12-05T10:32:04;21.55;;;10.25;;
73428;SDS011;61643;49.564;17.412;2022-12-05T10:34:38;21.58;;;10.15;;
73428;SDS011;61643;49.564;17.412;2022-12-05T10:39:44;19.92;;;9.73;;
73428;SDS011;61643;49.564;17.412;2022-12-05T10:42:43;21.30;;;10.02;;
73428;SDS011;61643;49.564;17.412;2022-12-05T10:45:03;21.42;;;10.32;;
73428;SDS011;61643;49.564;17.412;2022-12-05T10:47:31;22.27;;;10.85;;
73428;SDS011;61643;49.564;17.412;2022-12-05T10:49:59;20.52;;;10.75;;
73428;SDS011;61643;49.564;17.412;2022-12-05T10:52:29;22.95;;;11.60;;
73428;SDS011;61643;49.564;17.412;2022-12-05T10:54:57;22.17;;;10.45;;
73428;SDS011;61643;49.564;17.412;2022-12-05T10:57:27;23.20;;;10.93;;
73428;SDS011;61643;49.564;17.412;2022-12-05T10:59:57;19.98;;;9.85;;
73428;SDS011;61643;49.564;17.412;2022-12-05T11:02:33;20.58;;;9.82;;
73428;SDS011;61643;49.564;17.412;2022-12-05T11:05:00;19.30;;;9.80;;
73428;SDS011;61643;49.564;17.412;2022-12-05T11:07:46;21.85;;;9.65;;
73428;SDS011;61643;49.564;17.412;2022-12-05T11:10:32;19.27;;;9.10;;
73428;SDS011;61643;49.564;17.412;2022-12-05T11:12:59;19.75;;;9.18;;
73428;SDS011;61643;49.564;17.412;2022-12-05T11:15:27;18.48;;;9.32;;
73428;SDS011;61643;49.564;17.412;2022-12-05T11:17:54;20.83;;;9.93;;
73428;SDS011;61643;49.564;17.412;2022-12-05T11:22:47;21.00;;;9.53;;
73428;SDS011;61643;49.564;17.412;2022-12-05T11:25:35;17.27;;;8.75;;
73428;SDS011;61643;49.564;17.412;2022-12-05T11:30:54;20.88;;;9.45;;
73428;SDS011;61643;49.564;17.412;2022-12-05T11:33:26;19.20;;;9.38;;
73428;SDS011;61643;49.564;17.412;2022-12-05T11:36:00;20.83;;;10.02;;
73428;SDS011;61643;49.564;17.412;2022-12-05T11:38:29;18.20;;;9.73;;
73428;SDS011;61643;49.564;17.412;2022-12-05T11:46:46;18.05;;;9.00;;
73428;SDS011;61643;49.564;17.412;2022-12-05T12:27:39;26.92;;;13.55;;
73428;SDS011;61643;49.564;17.412;2022-12-05T12:30:19;22.55;;;10.57;;
73428;SDS011;61643;49.564;17.412;2022-12-05T12:32:56;22.13;;;11.10;;
73428;SDS011;61643;49.564;17.412;2022-12-05T12:45:15;22.20;;;9.65;;
73428;SDS011;61643;49.564;17.412;2022-12-05T13:04:08;21.10;;;8.43;;
73428;SDS011;61643;49.564;17.412;2022-12-05T13:09:18;17.48;;;9.43;;
73428;SDS011;61643;49.564;17.412;2022-12-05T13:11:48;19.55;;;8.85;;
73428;SDS011;61643;49.564;17.412;2022-12-05T13:14:16;19.98;;;9.23;;
73428;SDS011;61643;49.564;17.412;2022-12-05T13:16:48;22.02;;;9.43;;
73428;SDS011;61643;49.564;17.412;2022-12-05T13:19:31;17.67;;;8.55;;
73428;SDS011;61643;49.564;17.412;2022-12-05T13:22:06;19.83;;;9.25;;
73428;SDS011;61643;49.564;17.412;2022-12-05T13:24:33;18.27;;;9.32;;
73428;SDS011;61643;49.564;17.412;2022-12-05T13:27:00;21.95;;;9.43;;
73428;SDS011;61643;49.564;17.412;2022-12-05T13:29:37;20.10;;;9.35;;
73428;SDS011;61643;49.564;17.412;2022-12-05T13:32:06;19.13;;;8.68;;
73428;SDS011;61643;49.564;17.412;2022-12-05T13:34:49;19.95;;;8.88;;
73428;SDS011;61643;49.564;17.412;2022-12-05T13:37:19;18.90;;;8.45;;
73428;SDS011;61643;49.564;17.412;2022-12-05T13:40:04;21.10;;;9.43;;
73428;SDS011;61643;49.564;17.412;2022-12-05T13:42:57;18.48;;;8.90;;
73428;SDS011;61643;49.564;17.412;2022-12-05T13:45:26;20.35;;;8.75;;
73428;SDS011;61643;49.564;17.412;2022-12-05T13:58:52;18.35;;;8.80;;
73428;SDS011;61643;49.564;17.412;2022-12-05T14:10:04;19.83;;;8.52;;
73428;SDS011;61643;49.564;17.412;2022-12-05T14:17:46;20.90;;;9.20;;
73428;SDS011;61643;49.564;17.412;2022-12-05T14:34:22;19.42;;;8.85;;
73428;SDS011;61643;49.564;17.412;2022-12-05T14:39:42;20.35;;;9.38;;
73428;SDS011;61643;49.564;17.412;2022-12-05T14:42:18;20.23;;;9.48;;
73428;SDS011;61643;49.564;17.412;2022-12-05T14:50:38;19.27;;;8.50;;
73428;SDS011;61643;49.564;17.412;2022-12-05T14:55:39;16.90;;;7.57;;
73428;SDS011;61643;49.564;17.412;2022-12-05T14:58:08;19.40;;;8.05;;
73428;SDS011;61643;49.564;17.412;2022-12-05T15:00:41;19.52;;;9.32;;
73428;SDS011;61643;49.564;17.412;2022-12-05T15:03:09;28.83;;;11.43;;
73428;SDS011;61643;49.564;17.412;2022-12-05T15:05:47;20.45;;;9.45;;
73428;SDS011;61643;49.564;17.412;2022-12-05T15:08:13;17.48;;;7.93;;
73428;SDS011;61643;49.564;17.412;2022-12-05T15:10:40;18.45;;;8.85;;
73428;SDS011;61643;49.564;17.412;2022-12-05T15:13:13;18.52;;;8.55;;
73428;SDS011;61643;49.564;17.412;2022-12-05T15:15:46;21.42;;;9.45;;
73428;SDS011;61643;49.564;17.412;2022-12-05T15:18:43;19.25;;;9.02;;
73428;SDS011;61643;49.564;17.412;2022-12-05T15:29:34;28.23;;;11.15;;
73428;SDS011;61643;49.564;17.412;2022-12-05T15:31:48;26.30;;;11.32;;
73428;SDS011;61643;49.564;17.412;2022-12-05T15:39:24;30.35;;;15.13;;
73428;SDS011;61643;49.564;17.412;2022-12-05T15:44:21;31.00;;;14.00;;
73428;SDS011;61643;49.564;17.412;2022-12-05T15:46:51;41.22;;;15.63;;
73428;SDS011;61643;49.564;17.412;2022-12-05T15:49:22;30.13;;;13.32;;
73428;SDS011;61643;49.564;17.412;2022-12-05T15:51:51;48.03;;;18.52;;
73428;SDS011;61643;49.564;17.412;2022-12-05T15:54:24;54.70;;;21.52;;
73428;SDS011;61643;49.564;17.412;2022-12-05T15:59:40;63.75;;;23.67;;
73428;SDS011;61643;49.564;17.412;2022-12-05T16:02:12;69.45;;;24.10;;
73428;SDS011;61643;49.564;17.412;2022-12-05T16:04:54;65.80;;;22.90;;
73428;SDS011;61643;49.564;17.412;2022-12-05T16:07:22;45.70;;;18.02;;
73428;SDS011;61643;49.564;17.412;2022-12-05T16:09:51;36.88;;;14.70;;
73428;SDS011;61643;49.564;17.412;2022-12-05T16:12:24;36.83;;;15.75;;
73428;SDS011;61643;49.564;17.412;2022-12-05T16:14:55;36.15;;;14.07;;
73428;SDS011;61643;49.564;17.412;2022-12-05T16:17:24;36.28;;;15.25;;
73428;SDS011;61643;49.564;17.412;2022-12-05T16:19:50;39.20;;;15.43;;
73428;SDS011;61643;49.564;17.412;2022-12-05T16:22:28;36.40;;;14.90;;
73428;SDS011;61643;49.564;17.412;2022-12-05T16:25:01;36.95;;;14.75;;
73428;SDS011;61643;49.564;17.412;2022-12-05T16:27:36;39.63;;;14.02;;
73428;SDS011;61643;49.564;17.412;2022-12-05T16:32:46;30.48;;;12.63;;
73428;SDS011;61643;49.564;17.412;2022-12-05T16:38:28;33.13;;;13.88;;
73428;SDS011;61643;49.564;17.412;2022-12-05T16:41:00;36.58;;;14.63;;
73428;SDS011;61643;49.564;17.412;2022-12-05T16:48:26;36.03;;;14.18;;
73428;SDS011;61643;49.564;17.412;2022-12-05T16:53:37;44.35;;;15.63;;
73428;SDS011;61643;49.564;17.412;2022-12-05T16:56:09;38.60;;;15.15;;
73428;SDS011;61643;49.564;17.412;2022-12-05T16:58:38;36.10;;;15.82;;
73428;SDS011;61643;49.564;17.412;2022-12-05T17:01:04;37.17;;;14.73;;
73428;SDS011;61643;49.564;17.412;2022-12-05T17:03:31;37.22;;;15.98;;
73428;SDS011;61643;49.564;17.412;2022-12-05T17:05:57;40.08;;;16.70;;
73428;SDS011;61643;49.564;17.412;2022-12-05T17:08:22;47.80;;;21.48;;
73428;SDS011;61643;49.564;17.412;2022-12-05T17:10:49;37.45;;;16.17;;
73428;SDS011;61643;49.564;17.412;2022-12-05T17:13:15;37.97;;;14.68;;
73428;SDS011;61643;49.564;17.412;2022-12-05T17:15:42;40.20;;;15.20;;
73428;SDS011;61643;49.564;17.412;2022-12-05T17:18:12;40.60;;;16.25;;
73428;SDS011;61643;49.564;17.412;2022-12-05T17:20:40;36.92;;;15.85;;
73428;SDS011;61643;49.564;17.412;2022-12-05T17:23:13;40.65;;;16.90;;
73428;SDS011;61643;49.564;17.412;2022-12-05T17:25:41;49.47;;;19.88;;
73428;SDS011;61643;49.564;17.412;2022-12-05T17:28:13;50.63;;;20.20;;
73428;SDS011;61643;49.564;17.412;2022-12-05T17:30:38;48.05;;;20.05;;
73428;SDS011;61643;49.564;17.412;2022-12-05T17:33:04;47.67;;;18.42;;
73428;SDS011;61643;49.564;17.412;2022-12-05T17:35:30;42.88;;;17.58;;
73428;SDS011;61643;49.564;17.412;2022-12-05T17:37:56;43.20;;;17.17;;
73428;SDS011;61643;49.564;17.412;2022-12-05T17:40:21;36.97;;;16.70;;
73428;SDS011;61643;49.564;17.412;2022-12-05T17:42:47;40.72;;;16.35;;
73428;SDS011;61643;49.564;17.412;2022-12-05T17:45:13;43.05;;;16.33;;
73428;SDS011;61643;49.564;17.412;2022-12-05T17:47:40;37.15;;;15.63;;
73428;SDS011;61643;49.564;17.412;2022-12-05T17:50:09;36.70;;;15.27;;
73428;SDS011;61643;49.564;17.412;2022-12-05T17:52:40;38.75;;;14.38;;
73428;SDS011;61643;49.564;17.412;2022-12-05T17:55:10;37.05;;;15.07;;
73428;SDS011;61643;49.564;17.412;2022-12-05T17:57:40;44.00;;;16.95;;
73428;SDS011;61643;49.564;17.412;2022-12-05T18:00:06;47.40;;;16.92;;
73428;SDS011;61643;49.564;17.412;2022-12-05T18:02:32;53.25;;;18.50;;
73428;SDS011;61643;49.564;17.412;2022-12-05T18:04:57;49.87;;;17.63;;
73428;SDS011;61643;49.564;17.412;2022-12-05T18:07:22;48.00;;;18.83;;
73428;SDS011;61643;49.564;17.412;2022-12-05T18:09:48;44.93;;;17.87;;
73428;SDS011;61643;49.564;17.412;2022-12-05T18:12:13;45.60;;;17.53;;
73428;SDS011;61643;49.564;17.412;2022-12-05T18:14:38;49.33;;;18.10;;